sensor_id;sensor_type;location;lat;lon;timestamp;temperature;humidity
54642;DHT22;40536;53.194;5.728;2023-07-31T00:00:13;16.90;99.90
54642;DHT22;40536;53.194;5.728;2023-07-31T00:02:38;16.80;99.90
54642;DHT22;40536;53.194;5.728;2023-07-31T00:05:05;16.90;99.90
54642;DHT22;40536;53.194;5.728;2023-07-31T00:07:32;16.90;99.90
54642;DHT22;40536;53.194;5.728;2023-07-31T00:09:57;16.90;99.90
54642;DHT22;40536;53.194;5.728;2023-07-31T00:12:24;16.80;99.90
54642;DHT22;40536;53.194;5.728;2023-07-31T00:14:50;16.90;99.90
54642;DHT22;40536;53.194;5.728;2023-07-31T00:17:16;16.80;99.90
54642;DHT22;40536;53.194;5.728;2023-07-31T00:19:42;16.80;99.90
54642;DHT22;40536;53.194;5.728;2023-07-31T00:22:08;16.80;99.90
54642;DHT22;40536;53.194;5.728;2023-07-31T00:24:33;16.90;99.90
54642;DHT22;40536;53.194;5.728;2023-07-31T00:26:59;16.90;99.90
54642;DHT22;40536;53.194;5.728;2023-07-31T00:29:25;16.90;99.90
54642;DHT22;40536;53.194;5.728;2023-07-31T00:31:50;16.90;99.90
54642;DHT22;40536;53.194;5.728;2023-07-31T00:34:16;16.80;99.90
54642;DHT22;40536;53.194;5.728;2023-07-31T00:36:41;16.80;99.90
54642;DHT22;40536;53.194;5.728;2023-07-31T00:39:07;16.80;99.90
54642;DHT22;40536;53.194;5.728;2023-07-31T00:41:33;16.80;99.90
54642;DHT22;40536;53.194;5.728;2023-07-31T00:43:58;16.80;99.90
54642;DHT22;40536;53.194;5.728;2023-07-31T00:46:24;16.70;99.90
54642;DHT22;40536;53.194;5.728;2023-07-31T00:48:49;16.70;99.90
54642;DHT22;40536;53.194;5.728;2023-07-31T00:51:16;16.70;99.90
54642;DHT22;40536;53.194;5.728;2023-07-31T00:53:43;16.70;99.90
54642;DHT22;40536;53.194;5.728;2023-07-31T00:56:10;16.60;99.90
54642;DHT22;40536;53.194;5.728;2023-07-31T00:58:36;16.70;99.90
54642;DHT22;40536;53.194;5.728;2023-07-31T01:01:02;16.60;99.90
54642;DHT22;40536;53.194;5.728;2023-07-31T01:03:27;16.70;99.90
54642;DHT22;40536;53.194;5.728;2023-07-31T01:06:18;16.60;99.90
54642;DHT22;40536;53.194;5.728;2023-07-31T01:09:04;16.60;99.90
54642;DHT22;40536;53.194;5.728;2023-07-31T01:11:37;16.60;99.90
54642;DHT22;40536;53.194;5.728;2023-07-31T01:14:04;16.50;99.90
54642;DHT22;40536;53.194;5.728;2023-07-31T01:16:30;16.50;99.90
54642;DHT22;40536;53.194;5.728;2023-07-31T01:18:55;16.50;99.90
54642;DHT22;40536;53.194;5.728;2023-07-31T01:27:15;16.40;99.90
54642;DHT22;40536;53.194;5.728;2023-07-31T01:32:10;16.40;99.90
54642;DHT22;40536;53.194;5.728;2023-07-31T01:34:37;16.40;99.90
54642;DHT22;40536;53.194;5.728;2023-07-31T01:37:04;16.30;99.90
54642;DHT22;40536;53.194;5.728;2023-07-31T01:39:29;16.30;99.90
54642;DHT22;40536;53.194;5.728;2023-07-31T01:41:55;16.30;99.90
54642;DHT22;40536;53.194;5.728;2023-07-31T01:44:21;16.30;99.90
54642;DHT22;40536;53.194;5.728;2023-07-31T01:46:46;16.30;99.90
54642;DHT22;40536;53.194;5.728;2023-07-31T01:49:12;16.30;99.90
54642;DHT22;40536;53.194;5.728;2023-07-31T01:51:38;16.20;99.90
54642;DHT22;40536;53.194;5.728;2023-07-31T01:54:03;16.20;99.90
54642;DHT22;40536;53.194;5.728;2023-07-31T01:56:29;16.20;99.90
54642;DHT22;40536;53.194;5.728;2023-07-31T01:58:55;16.20;99.90
54642;DHT22;40536;53.194;5.728;2023-07-31T02:01:21;16.20;99.90
54642;DHT22;40536;53.194;5.728;2023-07-31T02:03:46;16.20;99.90
54642;DHT22;40536;53.194;5.728;2023-07-31T02:06:12;16.20;99.90
54642;DHT22;40536;53.194;5.728;2023-07-31T02:08:37;16.20;99.90
54642;DHT22;40536;53.194;5.728;2023-07-31T02:11:04;16.20;99.90
54642;DHT22;40536;53.194;5.728;2023-07-31T02:13:30;16.10;99.90
54642;DHT22;40536;53.194;5.728;2023-07-31T02:15:55;16.20;99.90
54642;DHT22;40536;53.194;5.728;2023-07-31T02:18:21;16.20;99.90
54642;DHT22;40536;53.194;5.728;2023-07-31T02:20:51;16.20;99.90
54642;DHT22;40536;53.194;5.728;2023-07-31T02:23:17;16.10;99.90
54642;DHT22;40536;53.194;5.728;2023-07-31T02:25:44;16.10;99.90
54642;DHT22;40536;53.194;5.728;2023-07-31T02:28:09;16.10;99.90
54642;DHT22;40536;53.194;5.728;2023-07-31T02:30:35;16.10;99.90
54642;DHT22;40536;53.194;5.728;2023-07-31T02:33:01;16.10;99.90
54642;DHT22;40536;53.194;5.728;2023-07-31T02:35:26;16.10;99.90
54642;DHT22;40536;53.194;5.728;2023-07-31T02:37:52;16.10;99.90
54642;DHT22;40536;53.194;5.728;2023-07-31T02:40:17;16.10;99.90
54642;DHT22;40536;53.194;5.728;2023-07-31T02:42:43;16.10;99.90
54642;DHT22;40536;53.194;5.728;2023-07-31T02:45:09;16.10;99.90
54642;DHT22;40536;53.194;5.728;2023-07-31T02:47:35;16.10;99.90
54642;DHT22;40536;53.194;5.728;2023-07-31T02:50:03;16.10;99.90
54642;DHT22;40536;53.194;5.728;2023-07-31T02:52:30;16.10;99.90
54642;DHT22;40536;53.194;5.728;2023-07-31T02:54:56;16.10;99.90
54642;DHT22;40536;53.194;5.728;2023-07-31T02:57:22;16.00;99.90
54642;DHT22;40536;53.194;5.728;2023-07-31T02:59:47;16.00;99.90
54642;DHT22;40536;53.194;5.728;2023-07-31T03:02:13;16.00;99.90
54642;DHT22;40536;53.194;5.728;2023-07-31T03:04:39;15.90;99.90
54642;DHT22;40536;53.194;5.728;2023-07-31T03:07:05;15.90;99.90
54642;DHT22;40536;53.194;5.728;2023-07-31T03:09:31;15.90;99.90
54642;DHT22;40536;53.194;5.728;2023-07-31T03:11:56;15.90;99.90
54642;DHT22;40536;53.194;5.728;2023-07-31T03:14:22;15.80;99.90
54642;DHT22;40536;53.194;5.728;2023-07-31T03:16:48;15.80;99.90
54642;DHT22;40536;53.194;5.728;2023-07-31T03:19:14;15.80;99.90
54642;DHT22;40536;53.194;5.728;2023-07-31T03:21:40;15.80;99.90
54642;DHT22;40536;53.194;5.728;2023-07-31T03:24:06;15.70;99.90
54642;DHT22;40536;53.194;5.728;2023-07-31T03:26:32;15.70;99.90
54642;DHT22;40536;53.194;5.728;2023-07-31T03:28:57;15.70;99.90
54642;DHT22;40536;53.194;5.728;2023-07-31T03:31:23;15.70;99.90
54642;DHT22;40536;53.194;5.728;2023-07-31T03:33:49;15.70;99.90
54642;DHT22;40536;53.194;5.728;2023-07-31T03:36:14;15.70;99.90
54642;DHT22;40536;53.194;5.728;2023-07-31T03:38:40;15.70;99.90
54642;DHT22;40536;53.194;5.728;2023-07-31T03:41:06;15.60;99.90
54642;DHT22;40536;53.194;5.728;2023-07-31T03:43:32;15.60;99.90
54642;DHT22;40536;53.194;5.728;2023-07-31T03:46:00;15.60;99.90
54642;DHT22;40536;53.194;5.728;2023-07-31T03:48:25;15.60;99.90
54642;DHT22;40536;53.194;5.728;2023-07-31T03:50:51;15.60;99.90
54642;DHT22;40536;53.194;5.728;2023-07-31T03:53:17;15.60;99.90
54642;DHT22;40536;53.194;5.728;2023-07-31T03:55:42;15.70;99.90
54642;DHT22;40536;53.194;5.728;2023-07-31T03:58:08;15.70;99.90
54642;DHT22;40536;53.194;5.728;2023-07-31T04:00:33;15.70;99.90
54642;DHT22;40536;53.194;5.728;2023-07-31T04:02:59;15.70;99.90
54642;DHT22;40536;53.194;5.728;2023-07-31T04:05:25;15.80;99.90
54642;DHT22;40536;53.194;5.728;2023-07-31T04:07:51;15.80;99.90
54642;DHT22;40536;53.194;5.728;2023-07-31T04:10:17;15.90;99.90
54642;DHT22;40536;53.194;5.728;2023-07-31T04:12:43;16.00;99.90
54642;DHT22;40536;53.194;5.728;2023-07-31T04:15:09;16.00;99.90
54642;DHT22;40536;53.194;5.728;2023-07-31T04:17:34;16.10;99.90
54642;DHT22;40536;53.194;5.728;2023-07-31T04:20:00;16.20;99.90
54642;DHT22;40536;53.194;5.728;2023-07-31T04:22:26;16.20;99.90
54642;DHT22;40536;53.194;5.728;2023-07-31T04:24:51;16.30;99.90
54642;DHT22;40536;53.194;5.728;2023-07-31T04:27:17;16.30;99.90
54642;DHT22;40536;53.194;5.728;2023-07-31T04:29:43;16.30;99.90
54642;DHT22;40536;53.194;5.728;2023-07-31T04:32:11;16.30;99.90
54642;DHT22;40536;53.194;5.728;2023-07-31T04:34:36;16.30;99.90
54642;DHT22;40536;53.194;5.728;2023-07-31T04:37:02;16.30;99.90
54642;DHT22;40536;53.194;5.728;2023-07-31T04:39:28;16.20;99.90
54642;DHT22;40536;53.194;5.728;2023-07-31T04:41:54;16.20;99.90
54642;DHT22;40536;53.194;5.728;2023-07-31T04:44:19;16.20;99.90
54642;DHT22;40536;53.194;5.728;2023-07-31T04:46:45;16.20;99.90
54642;DHT22;40536;53.194;5.728;2023-07-31T04:49:11;16.20;99.90
54642;DHT22;40536;53.194;5.728;2023-07-31T04:51:37;16.20;99.90
54642;DHT22;40536;53.194;5.728;2023-07-31T04:54:03;16.20;99.90
54642;DHT22;40536;53.194;5.728;2023-07-31T04:56:28;16.20;99.90
54642;DHT22;40536;53.194;5.728;2023-07-31T04:58:54;16.20;99.90
54642;DHT22;40536;53.194;5.728;2023-07-31T05:01:20;16.20;99.90
54642;DHT22;40536;53.194;5.728;2023-07-31T05:03:46;16.10;99.90
54642;DHT22;40536;53.194;5.728;2023-07-31T05:06:11;16.20;99.90
54642;DHT22;40536;53.194;5.728;2023-07-31T05:08:38;16.20;99.90
54642;DHT22;40536;53.194;5.728;2023-07-31T05:11:04;16.20;99.90
54642;DHT22;40536;53.194;5.728;2023-07-31T05:13:30;16.20;99.90
54642;DHT22;40536;53.194;5.728;2023-07-31T05:15:56;16.30;99.90
54642;DHT22;40536;53.194;5.728;2023-07-31T05:18:21;16.30;99.90
54642;DHT22;40536;53.194;5.728;2023-07-31T05:20:47;16.30;99.90
54642;DHT22;40536;53.194;5.728;2023-07-31T05:23:12;16.40;99.90
54642;DHT22;40536;53.194;5.728;2023-07-31T05:25:38;16.40;99.90
54642;DHT22;40536;53.194;5.728;2023-07-31T05:28:04;16.40;99.90
54642;DHT22;40536;53.194;5.728;2023-07-31T05:30:30;16.40;99.90
54642;DHT22;40536;53.194;5.728;2023-07-31T05:32:56;16.50;99.90
54642;DHT22;40536;53.194;5.728;2023-07-31T05:35:22;16.50;99.90
54642;DHT22;40536;53.194;5.728;2023-07-31T05:37:47;16.50;99.90
54642;DHT22;40536;53.194;5.728;2023-07-31T05:40:14;16.50;99.90
54642;DHT22;40536;53.194;5.728;2023-07-31T05:42:39;16.40;99.90
54642;DHT22;40536;53.194;5.728;2023-07-31T05:45:07;16.40;99.90
54642;DHT22;40536;53.194;5.728;2023-07-31T05:47:33;16.40;99.90
54642;DHT22;40536;53.194;5.728;2023-07-31T05:49:59;16.40;99.90
54642;DHT22;40536;53.194;5.728;2023-07-31T05:52:24;16.40;99.90
54642;DHT22;40536;53.194;5.728;2023-07-31T05:54:50;16.40;99.90
54642;DHT22;40536;53.194;5.728;2023-07-31T05:57:16;16.40;99.90
54642;DHT22;40536;53.194;5.728;2023-07-31T05:59:41;16.40;99.90
54642;DHT22;40536;53.194;5.728;2023-07-31T06:02:07;16.40;99.90
54642;DHT22;40536;53.194;5.728;2023-07-31T06:04:33;16.40;99.90
54642;DHT22;40536;53.194;5.728;2023-07-31T06:06:58;16.40;99.90
54642;DHT22;40536;53.194;5.728;2023-07-31T06:09:24;16.50;99.90
54642;DHT22;40536;53.194;5.728;2023-07-31T06:11:51;16.50;99.90
54642;DHT22;40536;53.194;5.728;2023-07-31T06:14:17;16.50;99.90
54642;DHT22;40536;53.194;5.728;2023-07-31T06:16:44;16.50;99.90
54642;DHT22;40536;53.194;5.728;2023-07-31T06:19:09;16.60;99.90
54642;DHT22;40536;53.194;5.728;2023-07-31T06:21:35;16.70;99.90
54642;DHT22;40536;53.194;5.728;2023-07-31T06:24:03;16.70;99.90
54642;DHT22;40536;53.194;5.728;2023-07-31T06:26:29;16.80;99.90
54642;DHT22;40536;53.194;5.728;2023-07-31T06:28:55;16.80;99.90
54642;DHT22;40536;53.194;5.728;2023-07-31T06:31:20;16.80;99.90
54642;DHT22;40536;53.194;5.728;2023-07-31T06:33:49;16.90;99.90
54642;DHT22;40536;53.194;5.728;2023-07-31T06:36:15;16.80;99.90
54642;DHT22;40536;53.194;5.728;2023-07-31T06:38:40;16.80;99.90
54642;DHT22;40536;53.194;5.728;2023-07-31T06:41:06;16.90;99.90
54642;DHT22;40536;53.194;5.728;2023-07-31T06:43:32;16.90;99.90
54642;DHT22;40536;53.194;5.728;2023-07-31T06:45:57;16.90;99.90
54642;DHT22;40536;53.194;5.728;2023-07-31T06:48:23;16.90;99.90
54642;DHT22;40536;53.194;5.728;2023-07-31T06:50:49;16.90;99.90
54642;DHT22;40536;53.194;5.728;2023-07-31T06:53:14;16.90;99.90
54642;DHT22;40536;53.194;5.728;2023-07-31T06:55:40;17.00;99.90
54642;DHT22;40536;53.194;5.728;2023-07-31T06:58:06;17.00;99.90
54642;DHT22;40536;53.194;5.728;2023-07-31T07:00:31;17.00;99.90
54642;DHT22;40536;53.194;5.728;2023-07-31T07:02:57;17.10;99.90
54642;DHT22;40536;53.194;5.728;2023-07-31T07:05:23;17.10;99.90
54642;DHT22;40536;53.194;5.728;2023-07-31T07:07:50;17.20;99.90
54642;DHT22;40536;53.194;5.728;2023-07-31T07:10:17;17.30;99.90
54642;DHT22;40536;53.194;5.728;2023-07-31T07:12:43;17.40;99.90
54642;DHT22;40536;53.194;5.728;2023-07-31T07:15:08;17.50;99.90
54642;DHT22;40536;53.194;5.728;2023-07-31T07:17:34;17.50;99.90
54642;DHT22;40536;53.194;5.728;2023-07-31T07:20:00;17.50;99.90
54642;DHT22;40536;53.194;5.728;2023-07-31T07:22:26;17.50;99.90
54642;DHT22;40536;53.194;5.728;2023-07-31T07:24:53;17.50;99.90
54642;DHT22;40536;53.194;5.728;2023-07-31T07:27:18;17.50;99.90
54642;DHT22;40536;53.194;5.728;2023-07-31T07:29:45;17.60;99.90
54642;DHT22;40536;53.194;5.728;2023-07-31T07:32:11;17.60;99.90
54642;DHT22;40536;53.194;5.728;2023-07-31T07:34:37;17.80;99.90
54642;DHT22;40536;53.194;5.728;2023-07-31T07:37:03;17.80;99.90
54642;DHT22;40536;53.194;5.728;2023-07-31T07:39:29;17.90;99.90
54642;DHT22;40536;53.194;5.728;2023-07-31T07:41:54;17.90;99.90
54642;DHT22;40536;53.194;5.728;2023-07-31T07:44:20;17.90;99.90
54642;DHT22;40536;53.194;5.728;2023-07-31T07:46:46;18.00;99.90
54642;DHT22;40536;53.194;5.728;2023-07-31T07:49:11;18.10;99.90
54642;DHT22;40536;53.194;5.728;2023-07-31T07:51:37;18.20;99.90
54642;DHT22;40536;53.194;5.728;2023-07-31T07:54:03;18.20;99.90
54642;DHT22;40536;53.194;5.728;2023-07-31T07:56:28;18.30;99.90
54642;DHT22;40536;53.194;5.728;2023-07-31T07:58:54;18.40;99.90
54642;DHT22;40536;53.194;5.728;2023-07-31T08:01:20;18.50;99.90
54642;DHT22;40536;53.194;5.728;2023-07-31T08:03:50;18.50;99.90
54642;DHT22;40536;53.194;5.728;2023-07-31T08:06:15;18.40;99.90
54642;DHT22;40536;53.194;5.728;2023-07-31T08:08:42;18.30;99.90
54642;DHT22;40536;53.194;5.728;2023-07-31T08:11:08;18.40;99.90
54642;DHT22;40536;53.194;5.728;2023-07-31T08:13:33;18.60;99.90
54642;DHT22;40536;53.194;5.728;2023-07-31T08:15:59;18.80;99.90
54642;DHT22;40536;53.194;5.728;2023-07-31T08:18:24;19.00;99.90
54642;DHT22;40536;53.194;5.728;2023-07-31T08:20:50;19.20;99.90
54642;DHT22;40536;53.194;5.728;2023-07-31T08:23:16;19.40;99.90
54642;DHT22;40536;53.194;5.728;2023-07-31T08:25:41;19.50;99.90
54642;DHT22;40536;53.194;5.728;2023-07-31T08:28:07;19.60;99.90
54642;DHT22;40536;53.194;5.728;2023-07-31T08:30:33;19.40;99.90
54642;DHT22;40536;53.194;5.728;2023-07-31T08:32:59;19.20;99.90
54642;DHT22;40536;53.194;5.728;2023-07-31T08:35:26;19.10;99.90
54642;DHT22;40536;53.194;5.728;2023-07-31T08:37:53;19.20;99.90
54642;DHT22;40536;53.194;5.728;2023-07-31T08:40:19;19.30;99.90
54642;DHT22;40536;53.194;5.728;2023-07-31T08:42:51;19.30;99.90
54642;DHT22;40536;53.194;5.728;2023-07-31T08:45:18;19.10;99.90
54642;DHT22;40536;53.194;5.728;2023-07-31T08:47:49;19.00;99.90
54642;DHT22;40536;53.194;5.728;2023-07-31T08:50:18;19.10;99.90
54642;DHT22;40536;53.194;5.728;2023-07-31T08:52:45;19.10;99.90
54642;DHT22;40536;53.194;5.728;2023-07-31T08:55:10;19.20;99.90
54642;DHT22;40536;53.194;5.728;2023-07-31T08:57:37;19.20;99.90
54642;DHT22;40536;53.194;5.728;2023-07-31T09:00:07;19.20;99.90
54642;DHT22;40536;53.194;5.728;2023-07-31T09:02:46;19.00;99.90
54642;DHT22;40536;53.194;5.728;2023-07-31T09:05:14;18.80;99.90
54642;DHT22;40536;53.194;5.728;2023-07-31T09:07:44;18.80;99.90
54642;DHT22;40536;53.194;5.728;2023-07-31T09:10:11;19.00;99.90
54642;DHT22;40536;53.194;5.728;2023-07-31T09:12:38;19.10;99.90
54642;DHT22;40536;53.194;5.728;2023-07-31T09:15:04;19.20;99.90
54642;DHT22;40536;53.194;5.728;2023-07-31T09:17:35;19.20;99.90
54642;DHT22;40536;53.194;5.728;2023-07-31T09:20:18;19.10;99.90
54642;DHT22;40536;53.194;5.728;2023-07-31T09:22:44;18.80;99.90
54642;DHT22;40536;53.194;5.728;2023-07-31T09:25:37;18.80;99.90
54642;DHT22;40536;53.194;5.728;2023-07-31T09:28:08;18.80;99.90
54642;DHT22;40536;53.194;5.728;2023-07-31T09:30:51;18.90;99.90
54642;DHT22;40536;53.194;5.728;2023-07-31T09:33:18;18.90;99.90
54642;DHT22;40536;53.194;5.728;2023-07-31T09:35:44;19.00;99.90
54642;DHT22;40536;53.194;5.728;2023-07-31T09:38:13;19.10;99.90
54642;DHT22;40536;53.194;5.728;2023-07-31T09:40:41;19.30;99.90
54642;DHT22;40536;53.194;5.728;2023-07-31T09:43:09;19.50;99.90
54642;DHT22;40536;53.194;5.728;2023-07-31T09:45:37;19.70;99.90
54642;DHT22;40536;53.194;5.728;2023-07-31T09:48:07;19.80;99.90
54642;DHT22;40536;53.194;5.728;2023-07-31T09:50:37;19.80;99.90
54642;DHT22;40536;53.194;5.728;2023-07-31T09:53:02;19.80;99.90
54642;DHT22;40536;53.194;5.728;2023-07-31T09:55:29;19.90;99.90
54642;DHT22;40536;53.194;5.728;2023-07-31T09:57:57;20.20;99.90
54642;DHT22;40536;53.194;5.728;2023-07-31T10:00:23;20.30;99.90
54642;DHT22;40536;53.194;5.728;2023-07-31T10:02:53;20.30;99.90
54642;DHT22;40536;53.194;5.728;2023-07-31T10:05:19;20.30;99.90
54642;DHT22;40536;53.194;5.728;2023-07-31T10:07:55;20.50;99.90
54642;DHT22;40536;53.194;5.728;2023-07-31T10:10:25;20.80;99.90
54642;DHT22;40536;53.194;5.728;2023-07-31T10:12:52;21.20;99.90
54642;DHT22;40536;53.194;5.728;2023-07-31T10:15:18;21.40;99.90
54642;DHT22;40536;53.194;5.728;2023-07-31T10:17:47;21.30;99.90
54642;DHT22;40536;53.194;5.728;2023-07-31T10:20:13;21.20;99.90
54642;DHT22;40536;53.194;5.728;2023-07-31T10:22:39;21.00;99.90
54642;DHT22;40536;53.194;5.728;2023-07-31T10:25:07;20.70;99.90
54642;DHT22;40536;53.194;5.728;2023-07-31T10:27:35;20.40;99.90
54642;DHT22;40536;53.194;5.728;2023-07-31T10:30:03;20.20;99.90
54642;DHT22;40536;53.194;5.728;2023-07-31T10:32:29;20.00;99.90
54642;DHT22;40536;53.194;5.728;2023-07-31T10:34:56;20.00;99.90
54642;DHT22;40536;53.194;5.728;2023-07-31T10:40:16;20.10;99.90
54642;DHT22;40536;53.194;5.728;2023-07-31T10:42:48;20.40;99.90
54642;DHT22;40536;53.194;5.728;2023-07-31T10:45:24;20.50;99.90
54642;DHT22;40536;53.194;5.728;2023-07-31T10:48:03;20.60;99.90
54642;DHT22;40536;53.194;5.728;2023-07-31T10:50:31;20.70;99.90
54642;DHT22;40536;53.194;5.728;2023-07-31T10:53:00;20.70;99.90
54642;DHT22;40536;53.194;5.728;2023-07-31T10:55:42;20.60;99.90
54642;DHT22;40536;53.194;5.728;2023-07-31T10:58:13;20.50;99.90
54642;DHT22;40536;53.194;5.728;2023-07-31T11:00:40;20.40;99.90
54642;DHT22;40536;53.194;5.728;2023-07-31T11:03:15;20.30;99.90
54642;DHT22;40536;53.194;5.728;2023-07-31T11:05:51;20.20;99.90
54642;DHT22;40536;53.194;5.728;2023-07-31T11:08:21;19.90;99.90
54642;DHT22;40536;53.194;5.728;2023-07-31T11:10:50;19.60;99.90
54642;DHT22;40536;53.194;5.728;2023-07-31T11:13:17;19.50;99.90
54642;DHT22;40536;53.194;5.728;2023-07-31T11:15:43;19.70;99.90
54642;DHT22;40536;53.194;5.728;2023-07-31T11:18:09;19.90;99.90
54642;DHT22;40536;53.194;5.728;2023-07-31T11:20:37;19.90;99.90
54642;DHT22;40536;53.194;5.728;2023-07-31T11:23:07;20.00;99.90
54642;DHT22;40536;53.194;5.728;2023-07-31T11:25:34;20.20;99.90
54642;DHT22;40536;53.194;5.728;2023-07-31T11:28:10;20.10;99.90
54642;DHT22;40536;53.194;5.728;2023-07-31T11:30:37;19.90;99.90
54642;DHT22;40536;53.194;5.728;2023-07-31T11:33:04;19.90;99.90
54642;DHT22;40536;53.194;5.728;2023-07-31T11:35:31;20.10;99.90
54642;DHT22;40536;53.194;5.728;2023-07-31T11:37:58;20.40;99.90
54642;DHT22;40536;53.194;5.728;2023-07-31T11:40:23;20.50;99.90
54642;DHT22;40536;53.194;5.728;2023-07-31T11:42:58;20.70;99.90
54642;DHT22;40536;53.194;5.728;2023-07-31T11:45:27;20.90;99.90
54642;DHT22;40536;53.194;5.728;2023-07-31T11:47:56;20.90;99.90
54642;DHT22;40536;53.194;5.728;2023-07-31T11:50:23;20.90;99.90
54642;DHT22;40536;53.194;5.728;2023-07-31T11:52:53;20.90;99.90
54642;DHT22;40536;53.194;5.728;2023-07-31T11:55:20;21.00;99.90
54642;DHT22;40536;53.194;5.728;2023-07-31T11:57:47;20.90;99.90
54642;DHT22;40536;53.194;5.728;2023-07-31T12:00:13;20.80;99.90
54642;DHT22;40536;53.194;5.728;2023-07-31T12:02:40;20.80;99.90
54642;DHT22;40536;53.194;5.728;2023-07-31T12:05:10;20.70;99.90
54642;DHT22;40536;53.194;5.728;2023-07-31T12:07:49;20.80;99.90
54642;DHT22;40536;53.194;5.728;2023-07-31T12:10:28;20.80;99.90
54642;DHT22;40536;53.194;5.728;2023-07-31T12:13:09;20.80;99.90
54642;DHT22;40536;53.194;5.728;2023-07-31T12:15:42;20.70;99.90
54642;DHT22;40536;53.194;5.728;2023-07-31T12:18:16;20.60;99.90
54642;DHT22;40536;53.194;5.728;2023-07-31T12:20:46;20.50;99.90
54642;DHT22;40536;53.194;5.728;2023-07-31T12:23:20;20.50;99.90
54642;DHT22;40536;53.194;5.728;2023-07-31T12:26:09;20.60;99.90
54642;DHT22;40536;53.194;5.728;2023-07-31T12:28:39;20.50;99.90
54642;DHT22;40536;53.194;5.728;2023-07-31T12:31:06;20.30;99.90
54642;DHT22;40536;53.194;5.728;2023-07-31T12:33:35;20.30;99.90
54642;DHT22;40536;53.194;5.728;2023-07-31T12:36:03;20.30;99.90
54642;DHT22;40536;53.194;5.728;2023-07-31T12:38:30;20.50;99.90
54642;DHT22;40536;53.194;5.728;2023-07-31T12:40:55;20.50;99.90
54642;DHT22;40536;53.194;5.728;2023-07-31T12:43:21;20.40;99.90
54642;DHT22;40536;53.194;5.728;2023-07-31T12:45:46;20.40;99.90
54642;DHT22;40536;53.194;5.728;2023-07-31T12:48:13;20.40;99.90
54642;DHT22;40536;53.194;5.728;2023-07-31T12:50:39;20.60;99.90
54642;DHT22;40536;53.194;5.728;2023-07-31T12:53:05;20.50;99.90
54642;DHT22;40536;53.194;5.728;2023-07-31T12:55:31;20.50;99.90
54642;DHT22;40536;53.194;5.728;2023-07-31T12:57:58;20.50;99.90
54642;DHT22;40536;53.194;5.728;2023-07-31T13:00:24;20.60;99.90
54642;DHT22;40536;53.194;5.728;2023-07-31T13:02:51;20.70;99.90
54642;DHT22;40536;53.194;5.728;2023-07-31T13:05:17;21.00;99.90
54642;DHT22;40536;53.194;5.728;2023-07-31T13:07:45;21.10;99.90
54642;DHT22;40536;53.194;5.728;2023-07-31T13:10:10;21.20;99.90
54642;DHT22;40536;53.194;5.728;2023-07-31T13:12:36;21.30;99.90
54642;DHT22;40536;53.194;5.728;2023-07-31T13:15:02;21.40;99.90
54642;DHT22;40536;53.194;5.728;2023-07-31T13:17:28;21.40;99.90
54642;DHT22;40536;53.194;5.728;2023-07-31T13:19:53;21.60;99.90
54642;DHT22;40536;53.194;5.728;2023-07-31T13:22:19;21.70;99.90
54642;DHT22;40536;53.194;5.728;2023-07-31T13:24:45;21.70;99.90
54642;DHT22;40536;53.194;5.728;2023-07-31T13:27:10;21.60;99.90
54642;DHT22;40536;53.194;5.728;2023-07-31T13:29:36;21.50;99.90
54642;DHT22;40536;53.194;5.728;2023-07-31T13:32:02;21.60;99.90
54642;DHT22;40536;53.194;5.728;2023-07-31T13:34:27;21.70;99.90
54642;DHT22;40536;53.194;5.728;2023-07-31T13:36:54;21.70;99.90
54642;DHT22;40536;53.194;5.728;2023-07-31T13:39:21;21.70;99.90
54642;DHT22;40536;53.194;5.728;2023-07-31T13:41:46;21.80;99.90
54642;DHT22;40536;53.194;5.728;2023-07-31T13:44:12;21.90;99.90
54642;DHT22;40536;53.194;5.728;2023-07-31T13:46:38;21.90;99.90
54642;DHT22;40536;53.194;5.728;2023-07-31T13:49:03;21.80;99.90
54642;DHT22;40536;53.194;5.728;2023-07-31T13:51:29;21.70;99.90
54642;DHT22;40536;53.194;5.728;2023-07-31T13:53:55;21.60;99.90
54642;DHT22;40536;53.194;5.728;2023-07-31T13:56:20;21.40;99.90
54642;DHT22;40536;53.194;5.728;2023-07-31T13:58:46;21.20;99.90
54642;DHT22;40536;53.194;5.728;2023-07-31T14:01:11;21.10;99.90
54642;DHT22;40536;53.194;5.728;2023-07-31T14:03:37;21.10;99.90
54642;DHT22;40536;53.194;5.728;2023-07-31T14:06:03;21.10;99.90
54642;DHT22;40536;53.194;5.728;2023-07-31T14:08:29;21.10;99.90
54642;DHT22;40536;53.194;5.728;2023-07-31T14:10:55;21.00;99.90
54642;DHT22;40536;53.194;5.728;2023-07-31T14:13:21;20.90;99.90
54642;DHT22;40536;53.194;5.728;2023-07-31T14:15:47;20.80;99.90
54642;DHT22;40536;53.194;5.728;2023-07-31T14:18:13;20.70;99.90
54642;DHT22;40536;53.194;5.728;2023-07-31T14:20:39;20.70;99.90
54642;DHT22;40536;53.194;5.728;2023-07-31T14:23:04;20.70;99.90
54642;DHT22;40536;53.194;5.728;2023-07-31T14:25:30;20.60;99.90
54642;DHT22;40536;53.194;5.728;2023-07-31T14:27:56;20.50;99.90
54642;DHT22;40536;53.194;5.728;2023-07-31T14:30:21;20.50;99.90
54642;DHT22;40536;53.194;5.728;2023-07-31T14:32:47;20.50;99.90
54642;DHT22;40536;53.194;5.728;2023-07-31T14:35:13;20.50;99.90
54642;DHT22;40536;53.194;5.728;2023-07-31T14:37:44;20.40;99.90
54642;DHT22;40536;53.194;5.728;2023-07-31T14:40:11;20.40;99.90
54642;DHT22;40536;53.194;5.728;2023-07-31T14:42:37;20.40;99.90
54642;DHT22;40536;53.194;5.728;2023-07-31T14:45:04;20.40;99.90
54642;DHT22;40536;53.194;5.728;2023-07-31T14:47:30;20.40;99.90
54642;DHT22;40536;53.194;5.728;2023-07-31T14:49:59;20.40;99.90
54642;DHT22;40536;53.194;5.728;2023-07-31T14:52:25;20.40;99.90
54642;DHT22;40536;53.194;5.728;2023-07-31T14:54:51;20.30;99.90
54642;DHT22;40536;53.194;5.728;2023-07-31T14:57:17;20.30;99.90
54642;DHT22;40536;53.194;5.728;2023-07-31T14:59:42;20.20;99.90
54642;DHT22;40536;53.194;5.728;2023-07-31T15:02:09;20.10;99.90
54642;DHT22;40536;53.194;5.728;2023-07-31T15:04:35;20.00;99.90
54642;DHT22;40536;53.194;5.728;2023-07-31T15:07:01;20.10;99.90
54642;DHT22;40536;53.194;5.728;2023-07-31T15:09:27;20.10;99.90
54642;DHT22;40536;53.194;5.728;2023-07-31T15:11:53;20.10;99.90
54642;DHT22;40536;53.194;5.728;2023-07-31T15:14:20;20.20;99.90
54642;DHT22;40536;53.194;5.728;2023-07-31T15:16:46;20.30;99.90
54642;DHT22;40536;53.194;5.728;2023-07-31T15:19:11;20.30;99.90
54642;DHT22;40536;53.194;5.728;2023-07-31T15:21:37;20.20;99.90
54642;DHT22;40536;53.194;5.728;2023-07-31T15:24:03;20.20;99.90
54642;DHT22;40536;53.194;5.728;2023-07-31T15:26:29;20.20;99.90
54642;DHT22;40536;53.194;5.728;2023-07-31T15:29:00;20.20;99.90
54642;DHT22;40536;53.194;5.728;2023-07-31T15:31:27;20.10;99.90
54642;DHT22;40536;53.194;5.728;2023-07-31T15:33:52;20.10;99.90
54642;DHT22;40536;53.194;5.728;2023-07-31T15:36:18;20.00;99.90
54642;DHT22;40536;53.194;5.728;2023-07-31T15:38:43;20.00;99.90